createdAt,value
2016-05-08T00:00:35.869Z,10.24
2016-05-08T00:01:35.871Z,10.27
2016-05-08T00:02:35.718Z,10.36
2016-05-08T00:03:35.877Z,10.34
2016-05-08T00:04:35.880Z,10.38
2016-05-08T00:05:35.882Z,10.38
2016-05-08T00:06:35.885Z,10.51
2016-05-08T00:07:35.873Z,10.43
2016-05-08T00:08:35.875Z,10.46
2016-05-08T00:09:35.878Z,10.41
2016-05-08T00:10:35.865Z,10.31
2016-05-08T00:11:35.898Z,10.3
2016-05-08T00:12:35.932Z,10.13
2016-05-08T00:13:35.873Z,10.17
2016-05-08T00:14:35.719Z,10.21
2016-05-08T00:15:35.878Z,10.12
2016-05-08T00:16:35.881Z,10.13
2016-05-08T00:17:35.884Z,10.12
2016-05-08T00:18:35.886Z,10.09
2016-05-08T00:19:35.873Z,10.13
2016-05-08T00:20:35.875Z,10.07
2016-05-08T00:21:35.878Z,10.06
2016-05-08T00:22:35.882Z,10.06
2016-05-08T00:23:35.900Z,10.06
2016-05-08T00:24:35.879Z,9.99
2016-05-08T00:25:35.881Z,9.94
2016-05-08T00:26:35.884Z,9.87
2016-05-08T00:27:35.870Z,9.94
2016-05-08T00:28:35.874Z,9.87
2016-05-08T00:29:35.892Z,9.74
2016-05-08T00:30:35.879Z,9.77
2016-05-08T00:31:36.069Z,9.74
2016-05-08T00:32:35.884Z,9.67
2016-05-08T00:33:35.870Z,9.64
2016-05-08T00:34:35.873Z,9.66
2016-05-08T00:35:35.876Z,9.58
2016-05-08T00:36:35.864Z,9.58
2016-05-08T00:37:35.882Z,9.59
2016-05-08T00:38:35.869Z,9.55
2016-05-08T00:39:35.872Z,9.59
2016-05-08T00:40:35.874Z,9.56
2016-05-08T00:41:35.877Z,9.52
2016-05-08T00:42:35.989Z,9.55
2016-05-08T00:43:35.867Z,9.56
2016-05-08T00:44:35.713Z,9.49
2016-05-08T00:45:35.716Z,9.44
2016-05-08T00:46:35.875Z,9.44
2016-05-08T00:47:35.878Z,9.42
2016-05-08T00:48:35.880Z,9.47
2016-05-08T00:49:35.867Z,9.47
2016-05-08T00:50:35.869Z,9.44
2016-05-08T00:51:35.888Z,9.49
2016-05-08T00:52:35.718Z,9.44
2016-05-08T00:53:35.878Z,9.42
2016-05-08T00:54:35.880Z,9.45
2016-05-08T00:55:35.712Z,9.37
2016-05-08T00:56:35.870Z,9.39
2016-05-08T00:57:35.732Z,9.36
2016-05-08T00:58:35.875Z,9.3
2016-05-08T00:59:35.863Z,9.31
2016-05-08T01:00:35.882Z,9.3
2016-05-08T01:01:35.884Z,9.29
2016-05-08T01:02:35.870Z,9.33
2016-05-08T01:03:35.874Z,9.29
2016-05-08T01:04:35.876Z,9.26
2016-05-08T01:05:35.864Z,9.27
2016-05-08T01:06:35.726Z,9.21
2016-05-08T01:07:35.884Z,9.22
2016-05-08T01:08:35.714Z,9.16
2016-05-08T01:09:35.874Z,9.21
2016-05-08T01:10:35.877Z,9.15
2016-05-08T01:11:35.551Z,9.15
2016-05-08T01:12:36.179Z,9.02
2016-05-08T01:13:35.869Z,9.02
2016-05-08T01:14:35.872Z,8.9
2016-05-08T01:15:35.859Z,9.05
2016-05-08T01:16:35.862Z,8.93
2016-05-08T01:17:35.864Z,8.96
2016-05-08T01:18:35.711Z,9.03
2016-05-08T01:19:35.869Z,8.97
2016-05-08T01:20:35.872Z,8.87
2016-05-08T01:21:35.860Z,8.93
2016-05-08T01:22:35.863Z,8.89
2016-05-08T01:23:35.865Z,8.95
2016-05-08T01:24:35.868Z,8.9
2016-05-08T01:25:35.714Z,8.89
2016-05-08T01:26:35.717Z,8.86
2016-05-08T01:27:36.048Z,8.84
2016-05-08T01:28:35.864Z,8.84
2016-05-08T01:29:35.850Z,8.9
2016-05-08T01:30:35.853Z,8.86
2016-05-08T01:31:35.871Z,8.86
2016-05-08T01:32:35.875Z,8.84
2016-05-08T01:33:35.861Z,8.84
2016-05-08T01:34:35.880Z,8.84
2016-05-08T01:35:35.710Z,8.78
2016-05-08T01:36:35.869Z,8.71
2016-05-08T01:37:35.856Z,8.68
2016-05-08T01:38:35.704Z,8.71
2016-05-08T01:39:35.846Z,8.64
2016-05-08T01:40:35.849Z,8.61
2016-05-08T01:41:35.867Z,8.52
2016-05-08T01:42:35.714Z,8.53
2016-05-08T01:43:35.701Z,8.53
2016-05-08T01:44:35.860Z,8.56
2016-05-08T01:45:35.862Z,8.52
2016-05-08T01:46:35.865Z,8.45
2016-05-08T01:47:35.853Z,8.41
2016-05-08T01:48:35.870Z,8.36
2016-05-08T01:49:35.842Z,8.44
2016-05-08T01:50:35.861Z,8.45
2016-05-08T01:51:35.534Z,8.45
2016-05-08T01:52:35.850Z,8.41
2016-05-08T01:53:35.853Z,8.52
2016-05-08T01:54:35.856Z,8.46
2016-05-08T01:55:35.842Z,8.49
2016-05-08T01:56:35.845Z,8.42
2016-05-08T01:57:36.097Z,8.46
2016-05-08T01:58:35.850Z,8.38
2016-05-08T01:59:35.853Z,8.39
2016-05-08T02:00:35.841Z,8.39
2016-05-08T02:01:35.844Z,8.42
2016-05-08T02:02:35.830Z,8.41
2016-05-08T02:03:35.676Z,8.39
2016-05-08T02:04:35.679Z,8.34
2016-05-08T02:05:35.838Z,8.38
2016-05-08T02:06:35.685Z,8.38
2016-05-08T02:07:35.844Z,8.24
2016-05-08T02:08:35.830Z,8.26
2016-05-08T02:09:35.848Z,8.2
2016-05-08T02:10:35.696Z,8.23
2016-05-08T02:11:35.683Z,8.2
2016-05-08T02:12:35.701Z,8.21
2016-05-08T02:13:35.844Z,8.18
2016-05-08T02:14:35.675Z,8.21
2016-05-08T02:15:35.834Z,8.16
2016-05-08T02:16:35.836Z,8.16
2016-05-08T02:17:35.840Z,8.13
2016-05-08T02:18:35.842Z,8.09
2016-05-08T02:19:35.829Z,8.06
2016-05-08T02:20:35.831Z,8.02
2016-05-08T02:21:35.678Z,7.99
2016-05-08T02:22:35.837Z,8.01
2016-05-08T02:23:35.840Z,7.98
2016-05-08T02:24:35.827Z,7.99
2016-05-08T02:25:35.830Z,7.99
2016-05-08T02:26:35.847Z,8.01
2016-05-08T02:27:35.819Z,8.01
2016-05-08T02:28:35.822Z,8.05
2016-05-08T02:29:35.825Z,8.05
2016-05-08T02:30:35.514Z,8.02
2016-05-08T02:31:35.830Z,8.05
2016-05-08T02:32:35.817Z,8.01
2016-05-08T02:33:35.679Z,8.02
2016-05-08T02:34:35.822Z,8.03
2016-05-08T02:35:35.513Z,7.96
2016-05-08T02:36:35.843Z,7.9
2016-05-08T02:37:35.815Z,7.84
2016-05-08T02:38:35.818Z,7.88
2016-05-08T02:39:35.820Z,7.83
2016-05-08T02:40:35.807Z,7.78
2016-05-08T02:41:35.843Z,7.8
2016-05-08T02:42:35.595Z,7.75
2016-05-08T02:43:35.942Z,7.69
2016-05-08T02:44:35.821Z,7.62
2016-05-08T02:45:36.043Z,7.62
2016-05-08T02:46:36.057Z,7.59
2016-05-08T02:47:36.094Z,7.74
2016-05-08T02:48:36.097Z,7.62
2016-05-08T02:49:36.102Z,7.66
2016-05-08T02:50:36.122Z,7.55
2016-05-08T02:51:35.794Z,7.59
2016-05-08T02:52:36.143Z,7.58
2016-05-08T02:53:36.153Z,7.61
2016-05-08T02:54:36.161Z,7.61
2016-05-08T02:55:36.153Z,7.66
2016-05-08T02:56:36.145Z,7.7
2016-05-08T02:57:36.275Z,7.64
2016-05-08T02:58:36.150Z,7.75
2016-05-08T02:59:36.155Z,7.69
2016-05-08T03:00:36.003Z,7.66
2016-05-08T03:01:36.165Z,7.59
2016-05-08T03:02:36.012Z,7.55
2016-05-08T03:03:36.156Z,7.58
2016-05-08T03:04:36.159Z,7.61
2016-05-08T03:05:36.007Z,7.51
2016-05-08T03:06:36.011Z,7.47
2016-05-08T03:07:36.154Z,7.5
2016-05-08T03:08:36.157Z,7.41
2016-05-08T03:09:36.160Z,7.44
2016-05-08T03:10:36.007Z,7.41
2016-05-08T03:11:36.151Z,7.41
2016-05-08T03:12:36.013Z,7.25
2016-05-08T03:13:36.016Z,7.33
2016-05-08T03:14:36.159Z,7.29
2016-05-08T03:15:35.990Z,7.31
2016-05-08T03:16:36.148Z,7.31
2016-05-08T03:17:36.152Z,7.32
2016-05-08T03:18:36.154Z,7.33
2016-05-08T03:19:35.985Z,7.25
2016-05-08T03:20:36.159Z,7.22
2016-05-08T03:21:35.835Z,7.23
2016-05-08T03:22:36.149Z,7.25
2016-05-08T03:23:36.184Z,7.22
2016-05-08T03:24:36.139Z,7.26
2016-05-08T03:25:35.986Z,7.13
2016-05-08T03:26:36.144Z,7.23
2016-05-08T03:27:37.275Z,7.29
2016-05-08T03:28:36.009Z,7.15
2016-05-08T03:29:36.137Z,7.19
2016-05-08T03:30:36.139Z,7.14
2016-05-08T03:31:36.128Z,7.13
2016-05-08T03:32:35.988Z,7.22
2016-05-08T03:33:36.133Z,7.14
2016-05-08T03:34:36.135Z,7.18
2016-05-08T03:35:35.980Z,7.11
2016-05-08T03:36:36.141Z,7.18
2016-05-08T03:37:36.127Z,7.1
2016-05-08T03:38:36.161Z,7.15
2016-05-08T03:39:36.116Z,7.13
2016-05-08T03:40:36.135Z,7.14
2016-05-08T03:41:36.122Z,7.15
2016-05-08T03:42:36.202Z,7.15
2016-05-08T03:43:36.128Z,7.1
2016-05-08T03:44:36.130Z,7.05
2016-05-08T03:45:36.118Z,7.07
2016-05-08T03:46:35.963Z,7.04
2016-05-08T03:47:36.123Z,6.95
2016-05-08T03:48:35.969Z,6.95
2016-05-08T03:49:35.957Z,6.96
2016-05-08T03:50:36.146Z,7
2016-05-08T03:51:36.102Z,6.97
2016-05-08T03:52:36.104Z,6.95
2016-05-08T03:53:36.123Z,6.92
2016-05-08T03:54:35.954Z,6.92
2016-05-08T03:55:35.957Z,6.92
2016-05-08T03:56:36.115Z,6.95
2016-05-08T03:57:36.400Z,6.96
2016-05-08T03:58:36.106Z,6.93
2016-05-08T03:59:35.952Z,7.01
2016-05-08T04:00:35.955Z,7
2016-05-08T04:01:36.098Z,7.07
2016-05-08T04:02:36.101Z,7.1
2016-05-08T04:03:36.103Z,7.08
2016-05-08T04:04:36.106Z,7.05
2016-05-08T04:05:36.124Z,7.11
2016-05-08T04:06:36.096Z,7.1
2016-05-08T04:07:35.942Z,7.08
2016-05-08T04:08:36.102Z,7.21
2016-05-08T04:09:36.088Z,7.15
2016-05-08T04:10:35.950Z,7.14
2016-05-08T04:11:36.094Z,7.21
2016-05-08T04:12:38.161Z,7.31
2016-05-08T04:13:36.099Z,7.28
2016-05-08T04:14:36.102Z,7.29
2016-05-08T04:15:36.120Z,7.37
2016-05-08T04:16:35.951Z,7.46
2016-05-08T04:17:36.110Z,7.61
2016-05-08T04:18:35.941Z,7.85
2016-05-08T04:19:36.131Z,8.03
2016-05-08T04:20:36.087Z,8.32
2016-05-08T04:21:36.090Z,8.42
2016-05-08T04:22:36.093Z,8.72
2016-05-08T04:23:36.095Z,9
2016-05-08T04:24:36.097Z,9.44
2016-05-08T04:25:36.100Z,9.64
2016-05-08T04:26:36.087Z,10
2016-05-08T04:27:36.309Z,10.27
2016-05-08T04:28:36.093Z,10.67
2016-05-08T04:29:36.095Z,10.8
2016-05-08T04:30:36.081Z,11.19
2016-05-08T04:31:36.084Z,11.51
2016-05-08T04:32:36.073Z,11.81
2016-05-08T04:33:35.934Z,12.11
2016-05-08T04:34:36.077Z,12.3
2016-05-08T04:35:35.924Z,12.73
2016-05-08T04:36:35.926Z,13.06
2016-05-08T04:37:36.086Z,13.31
2016-05-08T04:38:36.088Z,13.68
2016-05-08T04:39:35.935Z,14.01
2016-05-08T04:40:35.921Z,14.41
2016-05-08T04:41:36.081Z,14.63
2016-05-08T04:42:35.943Z,14.93
2016-05-08T04:43:36.085Z,15.17
2016-05-08T04:44:35.932Z,15.29
2016-05-08T04:45:36.092Z,15.65
2016-05-08T04:46:36.078Z,15.85
2016-05-08T04:47:36.082Z,16.09
2016-05-08T04:48:36.084Z,16.43
2016-05-08T04:49:36.086Z,16.68
2016-05-08T04:50:36.089Z,16.91
2016-05-08T04:51:36.077Z,17.27
2016-05-08T04:52:36.095Z,17.52
2016-05-08T04:53:36.082Z,17.78
2016-05-08T04:54:36.084Z,18.09
2016-05-08T04:55:36.087Z,18.3
2016-05-08T04:56:36.089Z,18.52
2016-05-08T04:57:36.984Z,18.79
2016-05-08T04:58:36.095Z,19.17
2016-05-08T04:59:36.097Z,19.49
2016-05-08T05:00:36.100Z,19.71
2016-05-08T05:01:36.103Z,19.94
2016-05-08T05:02:36.090Z,20.15
2016-05-08T05:03:35.937Z,20.44
2016-05-08T05:04:36.095Z,20.59
2016-05-08T05:05:36.114Z,20.74
2016-05-08T05:06:36.100Z,20.93
2016-05-08T05:07:35.947Z,21.19
2016-05-08T05:08:36.106Z,21.53
2016-05-08T05:09:36.125Z,21.78
2016-05-08T05:10:36.111Z,22.3
2016-05-08T05:11:36.114Z,22.58
2016-05-08T05:12:35.977Z,22.88
2016-05-08T05:13:36.119Z,23.06
2016-05-08T05:14:36.122Z,23.37
2016-05-08T05:15:36.110Z,23.39
2016-05-08T05:16:36.127Z,23.66
2016-05-08T05:17:36.130Z,24.01
2016-05-08T05:18:36.149Z,24.31
2016-05-08T05:19:36.135Z,24.55
2016-05-08T05:20:36.138Z,24.77
2016-05-08T05:21:35.985Z,25.09
2016-05-08T05:22:36.144Z,25.24
2016-05-08T05:23:35.990Z,25.52
2016-05-08T05:24:36.165Z,25.83
2016-05-08T05:25:36.152Z,26.04
2016-05-08T05:26:36.405Z,26.1
2016-05-08T05:27:36.782Z,26.39
2016-05-08T05:28:36.160Z,26.53
2016-05-08T05:29:36.162Z,26.64
2016-05-08T05:30:36.165Z,26.73
2016-05-08T05:31:36.168Z,26.82
2016-05-08T05:32:36.171Z,26.86
2016-05-08T05:33:36.173Z,27.07
2016-05-08T05:34:36.176Z,27.3
2016-05-08T05:35:36.195Z,27.52
2016-05-08T05:36:36.182Z,27.68
2016-05-08T05:37:36.028Z,27.82
2016-05-08T05:38:36.186Z,27.86
2016-05-08T05:39:36.205Z,28.04
2016-05-08T05:40:36.208Z,28.3
2016-05-08T05:41:36.211Z,28.56
2016-05-08T05:42:36.214Z,28.72
2016-05-08T05:43:36.232Z,29.3
2016-05-08T05:44:36.218Z,29.52
2016-05-08T05:45:36.237Z,29.98
2016-05-08T05:46:36.241Z,30.08
2016-05-08T05:47:36.227Z,30.29
2016-05-08T05:48:36.246Z,30.76
2016-05-08T05:49:36.263Z,31.13
2016-05-08T05:50:36.251Z,31.5
2016-05-08T05:51:36.253Z,31.82
2016-05-08T05:52:36.272Z,32.17
2016-05-08T05:53:36.274Z,32.41
2016-05-08T05:54:36.277Z,32.45
2016-05-08T05:55:36.295Z,32.48
2016-05-08T05:56:36.298Z,32.44
2016-05-08T05:57:36.300Z,32.57
2016-05-08T05:58:36.162Z,32.9
2016-05-08T05:59:35.993Z,33.13
2016-05-08T06:00:36.153Z,33.13
2016-05-08T06:01:36.326Z,33.23
2016-05-08T06:02:36.329Z,33.36
2016-05-08T06:03:36.332Z,33.57
2016-05-08T06:04:36.179Z,33.89
2016-05-08T06:05:36.354Z,34.14
2016-05-08T06:06:36.184Z,34.25
2016-05-08T06:07:36.202Z,34.58
2016-05-08T06:08:36.361Z,34.78
2016-05-08T06:09:36.364Z,34.83
2016-05-08T06:10:36.366Z,34.93
2016-05-08T06:11:36.386Z,35.1
2016-05-08T06:12:36.403Z,35.27
2016-05-08T06:13:36.391Z,35.74
2016-05-08T06:14:36.394Z,36.24
2016-05-08T06:15:36.411Z,36.63
2016-05-08T06:16:36.414Z,36.94
2016-05-08T06:17:36.416Z,37.09
2016-05-08T06:18:36.482Z,37.19
2016-05-08T06:19:36.454Z,37.34
2016-05-08T06:20:36.457Z,37.63
2016-05-08T06:21:36.459Z,38.01
2016-05-08T06:22:36.462Z,38.38
2016-05-08T06:23:36.464Z,38.51
2016-05-08T06:24:36.467Z,38.81
2016-05-08T06:25:36.485Z,39
2016-05-08T06:26:36.487Z,39.2
2016-05-08T06:27:36.491Z,39.39
2016-05-08T06:28:36.493Z,39.59
2016-05-08T06:29:36.512Z,39.83
2016-05-08T06:30:36.358Z,40.07
2016-05-08T06:31:36.361Z,40.35
2016-05-08T06:32:36.535Z,40.34
2016-05-08T06:33:36.553Z,40.57
2016-05-08T06:34:36.540Z,40.78
2016-05-08T06:35:36.403Z,40.89
2016-05-08T06:36:36.562Z,40.96
2016-05-08T06:37:36.408Z,40.89
2016-05-08T06:38:36.411Z,40.85
2016-05-08T06:39:36.600Z,40.58
2016-05-08T06:40:36.588Z,40.13
2016-05-08T06:41:36.606Z,39.39
2016-05-08T06:42:36.609Z,39.17
2016-05-08T06:43:36.628Z,38.92
2016-05-08T06:44:36.630Z,38.68
2016-05-08T06:45:36.633Z,38.69
2016-05-08T06:46:36.652Z,38.38
2016-05-08T06:47:36.654Z,37.78
2016-05-08T06:48:36.657Z,37.56
2016-05-08T06:49:36.675Z,37.75
2016-05-08T06:50:36.521Z,37.8
2016-05-08T06:51:36.680Z,37.78
2016-05-08T06:52:36.699Z,37.5
2016-05-08T06:53:36.702Z,37.28
2016-05-08T06:54:36.704Z,37.19
2016-05-08T06:55:36.722Z,37.1
2016-05-08T06:56:36.724Z,36.57
2016-05-08T06:57:36.852Z,36.36
2016-05-08T06:58:36.745Z,36.38
2016-05-08T06:59:36.748Z,36.39
2016-05-08T07:00:36.767Z,36.73
2016-05-08T07:01:36.629Z,37.15
2016-05-08T07:02:36.773Z,37.28
2016-05-08T07:03:36.775Z,37.76
2016-05-08T07:04:36.793Z,38.28
2016-05-08T07:05:36.812Z,38.62
2016-05-08T07:06:36.814Z,39.2
2016-05-08T07:07:36.879Z,39.6
2016-05-08T07:08:36.835Z,39.88
2016-05-08T07:09:36.838Z,39.78
2016-05-08T07:10:36.856Z,39.76
2016-05-08T07:11:36.858Z,39.8
2016-05-08T07:12:36.971Z,40.01
2016-05-08T07:13:36.880Z,40.12
2016-05-08T07:14:36.883Z,40.4
2016-05-08T07:15:36.886Z,40.67
2016-05-08T07:16:36.903Z,40.81
2016-05-08T07:17:36.922Z,40.85
2016-05-08T07:18:36.924Z,41.04
2016-05-08T07:19:36.943Z,40.92
2016-05-08T07:20:36.946Z,40.44
2016-05-08T07:21:36.948Z,40.04
2016-05-08T07:22:36.967Z,39.76
2016-05-08T07:23:36.985Z,39.73
2016-05-08T07:24:36.988Z,39.82
2016-05-08T07:25:36.991Z,40.04
2016-05-08T07:26:37.009Z,39.78
2016-05-08T07:27:37.058Z,39.56
2016-05-08T07:28:37.015Z,39.46
2016-05-08T07:29:37.032Z,39.68
2016-05-08T07:30:36.894Z,39.95
2016-05-08T07:31:37.054Z,40.22
2016-05-08T07:32:37.087Z,40.66
2016-05-08T07:33:37.074Z,40.77
2016-05-08T07:34:37.093Z,40.55
2016-05-08T07:35:37.095Z,40.61
2016-05-08T07:36:37.114Z,40.24
2016-05-08T07:37:37.117Z,40.16
2016-05-08T07:38:37.120Z,40.04
2016-05-08T07:39:37.122Z,39.73
2016-05-08T07:40:37.139Z,39.49
2016-05-08T07:41:37.159Z,39.63
2016-05-08T07:42:37.286Z,39.66
2016-05-08T07:43:37.164Z,39.82
2016-05-08T07:44:37.182Z,39.86
2016-05-08T07:45:37.185Z,39.75
2016-05-08T07:46:37.047Z,39.76
2016-05-08T07:47:37.066Z,39.97
2016-05-08T07:48:37.068Z,40.35
2016-05-08T07:49:37.070Z,40.58
2016-05-08T07:50:37.244Z,41
2016-05-08T07:51:37.247Z,41.04
2016-05-08T07:52:37.266Z,40.88
2016-05-08T07:53:37.269Z,40.81
2016-05-08T07:54:37.271Z,40.78
2016-05-08T07:55:37.274Z,40.78
2016-05-08T07:56:37.308Z,40.73
2016-05-08T07:57:37.779Z,40.36
2016-05-08T07:58:37.313Z,40.28
2016-05-08T07:59:37.332Z,40.28
2016-05-08T08:00:37.334Z,40.57
2016-05-08T08:01:37.353Z,40.62
2016-05-08T08:02:37.215Z,40.7
2016-05-08T08:03:37.233Z,40.77
2016-05-08T08:04:37.376Z,40.88
2016-05-08T08:05:37.379Z,40.76
2016-05-08T08:06:37.413Z,41.14
2016-05-08T08:07:37.415Z,41.65
2016-05-08T08:08:37.418Z,41.93
2016-05-08T08:09:37.281Z,42.15
2016-05-08T08:10:37.439Z,42.4
2016-05-08T08:11:37.442Z,42.68
2016-05-08T08:12:39.023Z,42.77
2016-05-08T08:13:37.463Z,42.93
2016-05-08T08:14:37.481Z,42.96
2016-05-08T08:15:37.328Z,42.81
2016-05-08T08:16:37.347Z,42.8
2016-05-08T08:17:37.364Z,42.68
2016-05-08T08:18:37.367Z,42.75
2016-05-08T08:19:37.542Z,42.63
2016-05-08T08:20:37.529Z,42.49
2016-05-08T08:21:37.547Z,42.51
2016-05-08T08:22:37.394Z,42.58
2016-05-08T08:23:37.568Z,42.66
2016-05-08T08:24:37.586Z,42.97
2016-05-08T08:25:37.589Z,43.03
2016-05-08T08:26:37.607Z,43.05
2016-05-08T08:27:37.876Z,42.82
2016-05-08T08:28:37.613Z,43.09
2016-05-08T08:29:37.647Z,43.5
2016-05-08T08:30:37.634Z,43.57
2016-05-08T08:31:37.637Z,43.54
2016-05-08T08:32:37.655Z,43.46
2016-05-08T08:33:37.517Z,43.32
2016-05-08T08:34:37.692Z,42.94
2016-05-08T08:35:37.694Z,42.15
2016-05-08T08:36:37.697Z,42.09
2016-05-08T08:37:37.700Z,42.59
2016-05-08T08:38:37.718Z,43.25
2016-05-08T08:39:37.720Z,43.72
2016-05-08T08:40:37.739Z,44
2016-05-08T08:41:37.429Z,44.04
2016-05-08T08:42:38.307Z,43.99
2016-05-08T08:43:37.762Z,44.29
2016-05-08T08:44:37.764Z,44.07
2016-05-08T08:45:37.767Z,43.54
2016-05-08T08:46:37.786Z,43.25
2016-05-08T08:47:37.648Z,43
2016-05-08T08:48:37.650Z,42.32
2016-05-08T08:49:37.825Z,41.87
2016-05-08T08:50:37.828Z,41.63
2016-05-08T08:51:37.831Z,41.45
2016-05-08T08:52:37.833Z,41.46
2016-05-08T08:53:37.696Z,41.61
2016-05-08T08:54:37.854Z,41.98
2016-05-08T08:55:37.857Z,42.34
2016-05-08T08:56:37.876Z,42.44
2016-05-08T08:57:37.971Z,42.46
2016-05-08T08:58:37.897Z,42.52
2016-05-08T08:59:37.915Z,42.24
2016-05-08T09:00:37.902Z,42.25
2016-05-08T09:01:37.921Z,42.25
2016-05-08T09:02:37.907Z,42.22
2016-05-08T09:03:37.926Z,42.24
2016-05-08T09:04:37.943Z,42.49
2016-05-08T09:05:37.946Z,42.8
2016-05-08T09:06:37.949Z,43.05
2016-05-08T09:07:37.967Z,43.22
2016-05-08T09:08:37.971Z,43.22
2016-05-08T09:09:37.989Z,42.66
2016-05-08T09:10:37.991Z,42.24
2016-05-08T09:11:37.838Z,42.03
2016-05-08T09:12:39.106Z,42.21
2016-05-08T09:13:38.000Z,42.14
2016-05-08T09:14:38.017Z,42.21
2016-05-08T09:15:38.020Z,42.36
2016-05-08T09:16:38.023Z,42.47
2016-05-08T09:17:37.885Z,41.91
2016-05-08T09:18:38.044Z,41.78
2016-05-08T09:19:37.733Z,41.7
2016-05-08T09:20:38.050Z,41.04
2016-05-08T09:21:38.069Z,40.58
2016-05-08T09:22:38.071Z,40.34
2016-05-08T09:23:38.074Z,40.34
2016-05-08T09:24:38.091Z,40.64
2016-05-08T09:25:38.110Z,40.77
2016-05-08T09:26:37.941Z,40.88
2016-05-08T09:27:38.115Z,40.88
2016-05-08T09:28:37.962Z,40.49
2016-05-08T09:29:38.121Z,39.93
2016-05-08T09:30:38.124Z,39.3
2016-05-08T09:31:38.141Z,38.51
2016-05-08T09:32:38.129Z,37.91
2016-05-08T09:33:38.146Z,37.01
2016-05-08T09:34:38.166Z,36.01
2016-05-08T09:35:38.168Z,34.89
2016-05-08T09:36:38.154Z,33.29
2016-05-08T09:37:54.707Z,31.64
2016-05-08T09:38:38.176Z,30.96
2016-05-08T09:39:38.179Z,30.08
2016-05-08T09:40:38.197Z,29.42
2016-05-08T09:41:38.215Z,28.7
2016-05-08T09:42:38.546Z,28.09
2016-05-08T09:43:38.220Z,27.61
2016-05-08T09:44:38.208Z,27.28
2016-05-08T09:45:38.225Z,27.08
2016-05-08T09:46:38.228Z,26.85
2016-05-08T09:47:38.232Z,26.64
2016-05-08T09:48:38.234Z,26.42
2016-05-08T09:49:38.097Z,26.27
2016-05-08T09:50:38.255Z,26.11
2016-05-08T09:51:38.258Z,25.85
2016-05-08T09:52:38.464Z,25.66
2016-05-08T09:53:38.263Z,25.48
2016-05-08T09:54:38.266Z,25.26
2016-05-08T09:55:38.299Z,25.34
2016-05-08T09:56:38.288Z,25.19
2016-05-08T09:57:38.290Z,25.07
2016-05-08T09:58:38.293Z,24.92
2016-05-08T09:59:38.155Z,24.78
2016-05-08T10:00:38.313Z,24.77
2016-05-08T10:01:38.316Z,24.74
2016-05-08T10:02:38.318Z,24.85
2016-05-08T10:03:38.321Z,24.92
2016-05-08T10:04:38.340Z,25.12
2016-05-08T10:05:38.202Z,25.16
2016-05-08T10:06:38.360Z,25.07
2016-05-08T10:07:38.348Z,25.11
2016-05-08T10:08:38.351Z,24.92
2016-05-08T10:09:38.368Z,24.97
2016-05-08T10:10:38.371Z,25.11
2016-05-08T10:11:38.373Z,25.12
2016-05-08T10:12:39.126Z,25.03
2016-05-08T10:13:38.068Z,25.12
2016-05-08T10:14:38.381Z,25.06
2016-05-08T10:15:38.385Z,25.06
2016-05-08T10:16:38.247Z,24.94
2016-05-08T10:17:38.234Z,24.79
2016-05-08T10:18:38.425Z,24.85
2016-05-08T10:19:38.427Z,24.74
2016-05-08T10:20:38.414Z,24.75
2016-05-08T10:21:38.433Z,24.75
2016-05-08T10:22:38.435Z,24.75
2016-05-08T10:23:38.433Z,24.79
2016-05-08T10:24:38.280Z,24.62
2016-05-08T10:25:38.439Z,24.58
2016-05-08T10:26:38.456Z,24.47
2016-05-08T10:27:38.678Z,24.51
2016-05-08T10:28:38.477Z,24.38
2016-05-08T10:29:38.464Z,24.44
2016-05-08T10:30:38.467Z,24.37
2016-05-08T10:31:38.470Z,24.53
2016-05-08T10:32:38.316Z,24.59
2016-05-08T10:33:38.475Z,24.75
2016-05-08T10:34:38.478Z,24.86
2016-05-08T10:35:38.480Z,24.99
2016-05-08T10:36:38.499Z,25.15
2016-05-08T10:37:38.501Z,25.29
2016-05-08T10:38:38.504Z,25.3
2016-05-08T10:39:38.507Z,25.36
2016-05-08T10:40:38.509Z,25.31
2016-05-08T10:41:38.356Z,25.34
2016-05-08T10:42:38.531Z,25.36
2016-05-08T10:43:48.801Z,25.44
2016-05-08T10:44:38.536Z,25.59
2016-05-08T10:45:38.539Z,25.63
2016-05-08T10:46:38.557Z,25.59
2016-05-08T10:47:38.560Z,25.62
2016-05-08T10:48:38.547Z,25.71
2016-05-08T10:49:38.565Z,25.86
2016-05-08T10:50:38.568Z,25.67
2016-05-08T10:51:38.556Z,25.54
2016-05-08T10:52:38.417Z,25.49
2016-05-08T10:53:38.420Z,25.33
2016-05-08T10:54:38.594Z,25.25
2016-05-08T10:55:38.425Z,25.19
2016-05-08T10:56:38.584Z,25.15
2016-05-08T10:57:38.447Z,25.16
2016-05-08T10:58:38.589Z,25.04
2016-05-08T10:59:38.608Z,24.79
2016-05-08T11:00:38.611Z,24.48
2016-05-08T11:01:38.613Z,24.46
2016-05-08T11:02:38.632Z,24.28
2016-05-08T11:03:38.618Z,24.14
2016-05-08T11:04:38.637Z,24.09
2016-05-08T11:05:38.639Z,24.1
2016-05-08T11:06:38.642Z,24.04
2016-05-08T11:07:38.489Z,23.94
2016-05-08T11:08:38.648Z,23.91
2016-05-08T11:09:38.665Z,23.85
2016-05-08T11:10:38.668Z,23.79
2016-05-08T11:11:38.656Z,23.79
2016-05-08T11:12:38.674Z,23.88
2016-05-08T11:13:38.754Z,23.86
2016-05-08T11:14:38.679Z,23.77
2016-05-08T11:15:38.526Z,23.88
2016-05-08T11:16:38.685Z,23.91
2016-05-08T11:17:38.688Z,23.95
2016-05-08T11:18:38.690Z,23.95
2016-05-08T11:19:38.709Z,23.91
2016-05-08T11:20:38.539Z,23.94
2016-05-08T11:21:38.714Z,23.76
2016-05-08T11:22:38.731Z,23.77
2016-05-08T11:23:38.734Z,23.74
2016-05-08T11:24:38.722Z,23.74
2016-05-08T11:25:38.725Z,23.89
2016-05-08T11:26:38.742Z,23.92
2016-05-08T11:27:39.074Z,24.01
2016-05-08T11:28:38.577Z,24
2016-05-08T11:29:38.735Z,24.13
2016-05-08T11:30:38.753Z,24.04
2016-05-08T11:31:38.740Z,23.99
2016-05-08T11:32:38.619Z,23.86
2016-05-08T11:33:38.762Z,23.82
2016-05-08T11:34:38.764Z,23.81
2016-05-08T11:35:38.783Z,23.79
2016-05-08T11:36:38.676Z,23.84
2016-05-08T11:37:38.772Z,23.79
2016-05-08T11:38:38.791Z,23.73
2016-05-08T11:39:38.793Z,23.73
2016-05-08T11:40:38.796Z,23.73
2016-05-08T11:41:38.799Z,23.77
2016-05-08T11:42:39.129Z,23.69
2016-05-08T11:43:38.804Z,23.73
2016-05-08T11:44:38.807Z,23.74
2016-05-08T11:45:38.809Z,23.7
2016-05-08T11:46:38.828Z,23.71
2016-05-08T11:47:38.517Z,23.67
2016-05-08T11:48:38.725Z,23.79
2016-05-08T11:49:38.911Z,23.89
2016-05-08T11:50:38.955Z,24.03
2016-05-08T11:51:38.984Z,24.26
2016-05-08T11:52:39.044Z,24.4
2016-05-08T11:53:38.927Z,24.5
2016-05-08T11:54:38.929Z,24.62
2016-05-08T11:55:38.946Z,24.61
2016-05-08T11:56:39.121Z,24.53
2016-05-08T11:57:39.278Z,24.43
2016-05-08T11:58:39.164Z,24.44
2016-05-08T11:59:39.172Z,24.48
2016-05-08T12:00:39.024Z,24.41
2016-05-08T12:01:39.188Z,24.48
2016-05-08T12:02:39.196Z,24.58
2016-05-08T12:03:39.062Z,24.58
2016-05-08T12:04:39.222Z,24.58
2016-05-08T12:05:39.211Z,24.59
2016-05-08T12:06:39.231Z,24.43
2016-05-08T12:07:39.080Z,24.37
2016-05-08T12:08:39.223Z,24.44
2016-05-08T12:09:39.243Z,24.36
2016-05-08T12:10:39.091Z,24.28
2016-05-08T12:11:39.266Z,24.29
2016-05-08T12:12:39.254Z,24.25
2016-05-08T12:13:39.272Z,24.28
2016-05-08T12:14:39.274Z,24.19
2016-05-08T12:15:39.293Z,24.38
2016-05-08T12:16:39.108Z,24.48
2016-05-08T12:17:39.283Z,24.66
2016-05-08T12:18:39.128Z,24.84
2016-05-08T12:19:39.273Z,25.03
2016-05-08T12:20:39.276Z,25.09
2016-05-08T12:21:39.294Z,25.25
2016-05-08T12:22:39.297Z,25.29
2016-05-08T12:23:39.299Z,25.31
2016-05-08T12:24:39.317Z,25.37
2016-05-08T12:25:39.319Z,25.36
2016-05-08T12:26:39.322Z,25.44
2016-05-08T12:27:39.325Z,25.51
2016-05-08T12:28:39.547Z,25.66
2016-05-08T12:29:39.315Z,25.71
2016-05-08T12:30:39.349Z,25.67
2016-05-08T12:31:39.180Z,25.68
2016-05-08T12:32:39.182Z,25.67
2016-05-08T12:33:39.341Z,25.67
2016-05-08T12:34:39.359Z,25.59
2016-05-08T12:35:39.191Z,25.68
2016-05-08T12:36:39.366Z,25.68
2016-05-08T12:37:39.383Z,25.7
2016-05-08T12:38:39.371Z,25.8
2016-05-08T12:39:39.373Z,25.8
2016-05-08T12:40:39.376Z,25.74
2016-05-08T12:41:39.238Z,25.71
2016-05-08T12:42:39.381Z,25.58
2016-05-08T12:43:39.384Z,25.68
2016-05-08T12:44:39.387Z,25.71
2016-05-08T12:45:39.389Z,25.63
2016-05-08T12:46:39.392Z,25.59
2016-05-08T12:47:39.395Z,25.7
2016-05-08T12:48:39.412Z,25.76
2016-05-08T12:49:39.415Z,25.73
2016-05-08T12:50:39.417Z,25.88
2016-05-08T12:51:39.420Z,25.86
2016-05-08T12:52:39.424Z,25.83
2016-05-08T12:53:39.442Z,25.83
2016-05-08T12:54:39.445Z,25.83
2016-05-08T12:55:39.463Z,25.85
2016-05-08T12:56:39.450Z,25.88
2016-05-08T12:57:39.296Z,25.98
2016-05-08T12:58:39.299Z,25.92
2016-05-08T12:59:39.458Z,25.91
2016-05-08T13:00:39.461Z,25.85
2016-05-08T13:01:39.308Z,25.85
2016-05-08T13:02:39.482Z,25.89
2016-05-08T13:03:39.469Z,26.07